sensor_id;sensor_type;location;lat;lon;timestamp;temperature;humidity
1614;DHT22;800;48.824;9.346;2022-09-30T00:01:46;14.40;59.00
1614;DHT22;800;48.824;9.346;2022-09-30T00:04:15;14.40;58.90
1614;DHT22;800;48.824;9.346;2022-09-30T00:06:41;14.30;58.70
1614;DHT22;800;48.824;9.346;2022-09-30T00:09:07;14.30;58.70
1614;DHT22;800;48.824;9.346;2022-09-30T00:11:35;14.30;58.60
1614;DHT22;800;48.824;9.346;2022-09-30T00:14:03;14.30;58.60
1614;DHT22;800;48.824;9.346;2022-09-30T00:16:31;14.30;58.70
1614;DHT22;800;48.824;9.346;2022-09-30T00:18:58;14.20;59.60
1614;DHT22;800;48.824;9.346;2022-09-30T00:21:25;14.20;59.40
1614;DHT22;800;48.824;9.346;2022-09-30T00:23:52;14.20;59.60
1614;DHT22;800;48.824;9.346;2022-09-30T00:26:20;14.10;59.80
1614;DHT22;800;48.824;9.346;2022-09-30T00:28:49;14.00;60.10
1614;DHT22;800;48.824;9.346;2022-09-30T00:31:16;13.90;60.50
1614;DHT22;800;48.824;9.346;2022-09-30T00:33:43;14.00;60.60
1614;DHT22;800;48.824;9.346;2022-09-30T00:36:09;14.00;60.20
1614;DHT22;800;48.824;9.346;2022-09-30T00:38:35;14.10;59.80
1614;DHT22;800;48.824;9.346;2022-09-30T00:41:01;14.10;59.50
1614;DHT22;800;48.824;9.346;2022-09-30T00:43:56;14.10;59.20
1614;DHT22;800;48.824;9.346;2022-09-30T00:46:34;14.10;59.20
1614;DHT22;800;48.824;9.346;2022-09-30T00:49:06;14.10;59.10
1614;DHT22;800;48.824;9.346;2022-09-30T00:51:36;14.20;59.20
1614;DHT22;800;48.824;9.346;2022-09-30T00:54:08;14.10;59.20
1614;DHT22;800;48.824;9.346;2022-09-30T00:56:40;14.10;59.40
1614;DHT22;800;48.824;9.346;2022-09-30T00:59:11;14.00;59.70
1614;DHT22;800;48.824;9.346;2022-09-30T01:01:39;13.80;60.40
1614;DHT22;800;48.824;9.346;2022-09-30T01:04:13;13.60;60.80
1614;DHT22;800;48.824;9.346;2022-09-30T01:06:40;13.40;61.40
1614;DHT22;800;48.824;9.346;2022-09-30T01:09:06;13.40;62.00
1614;DHT22;800;48.824;9.346;2022-09-30T01:11:31;13.40;62.10
1614;DHT22;800;48.824;9.346;2022-09-30T01:14:11;13.40;62.00
1614;DHT22;800;48.824;9.346;2022-09-30T01:22:29;12.80;63.90
1614;DHT22;800;48.824;9.346;2022-09-30T01:31:05;12.80;65.00
1614;DHT22;800;48.824;9.346;2022-09-30T01:34:13;12.90;65.60
1614;DHT22;800;48.824;9.346;2022-09-30T01:42:09;13.40;64.20
1614;DHT22;800;48.824;9.346;2022-09-30T01:47:45;13.50;63.70
1614;DHT22;800;48.824;9.346;2022-09-30T01:55:33;13.50;63.20
1614;DHT22;800;48.824;9.346;2022-09-30T01:58:11;13.40;63.60
1614;DHT22;800;48.824;9.346;2022-09-30T02:00:41;13.40;63.60
1614;DHT22;800;48.824;9.346;2022-09-30T02:03:17;13.20;64.50
1614;DHT22;800;48.824;9.346;2022-09-30T02:05:56;13.10;64.40
1614;DHT22;800;48.824;9.346;2022-09-30T02:08:27;12.90;65.50
1614;DHT22;800;48.824;9.346;2022-09-30T02:10:58;12.80;65.80
1614;DHT22;800;48.824;9.346;2022-09-30T02:13:32;12.80;65.80
1614;DHT22;800;48.824;9.346;2022-09-30T02:16:04;12.70;66.30
1614;DHT22;800;48.824;9.346;2022-09-30T02:18:49;12.80;66.40
1614;DHT22;800;48.824;9.346;2022-09-30T02:21:23;12.90;65.50
1614;DHT22;800;48.824;9.346;2022-09-30T02:23:54;13.00;65.50
1614;DHT22;800;48.824;9.346;2022-09-30T02:26:28;13.00;65.20
1614;DHT22;800;48.824;9.346;2022-09-30T02:29:24;13.10;65.20
1614;DHT22;800;48.824;9.346;2022-09-30T02:31:55;13.30;64.80
1614;DHT22;800;48.824;9.346;2022-09-30T02:37:11;13.40;63.90
1614;DHT22;800;48.824;9.346;2022-09-30T02:42:26;13.50;64.00
1614;DHT22;800;48.824;9.346;2022-09-30T02:44:57;13.50;64.00
1614;DHT22;800;48.824;9.346;2022-09-30T02:50:25;13.60;63.80
1614;DHT22;800;48.824;9.346;2022-09-30T02:55:46;13.60;63.40
1614;DHT22;800;48.824;9.346;2022-09-30T02:58:23;13.60;63.40
1614;DHT22;800;48.824;9.346;2022-09-30T03:00:53;13.60;62.80
1614;DHT22;800;48.824;9.346;2022-09-30T03:03:20;13.60;62.70
1614;DHT22;800;48.824;9.346;2022-09-30T03:05:49;13.70;62.60
1614;DHT22;800;48.824;9.346;2022-09-30T03:08:15;13.60;62.30
1614;DHT22;800;48.824;9.346;2022-09-30T03:10:42;13.60;62.10
1614;DHT22;800;48.824;9.346;2022-09-30T03:18:45;13.40;63.10
1614;DHT22;800;48.824;9.346;2022-09-30T03:29:32;13.60;62.60
1614;DHT22;800;48.824;9.346;2022-09-30T03:35:31;13.50;62.20
1614;DHT22;800;48.824;9.346;2022-09-30T03:38:06;13.50;62.20
1614;DHT22;800;48.824;9.346;2022-09-30T03:43:33;13.50;61.80
1614;DHT22;800;48.824;9.346;2022-09-30T03:46:05;13.60;61.80
1614;DHT22;800;48.824;9.346;2022-09-30T03:48:33;13.60;61.80
1614;DHT22;800;48.824;9.346;2022-09-30T03:51:00;13.60;61.90
1614;DHT22;800;48.824;9.346;2022-09-30T03:53:26;13.60;61.70
1614;DHT22;800;48.824;9.346;2022-09-30T03:55:53;13.20;61.50
1614;DHT22;800;48.824;9.346;2022-09-30T03:58:21;12.90;62.70
1614;DHT22;800;48.824;9.346;2022-09-30T04:00:51;12.50;64.10
1614;DHT22;800;48.824;9.346;2022-09-30T04:03:18;12.50;65.00
1614;DHT22;800;48.824;9.346;2022-09-30T04:05:45;12.70;65.30
1614;DHT22;800;48.824;9.346;2022-09-30T04:08:10;12.70;65.00
1614;DHT22;800;48.824;9.346;2022-09-30T04:10:41;12.70;64.70
1614;DHT22;800;48.824;9.346;2022-09-30T04:13:07;12.70;64.60
1614;DHT22;800;48.824;9.346;2022-09-30T04:15:34;12.80;64.30
1614;DHT22;800;48.824;9.346;2022-09-30T04:18:01;12.90;64.10
1614;DHT22;800;48.824;9.346;2022-09-30T04:20:28;13.00;63.50
1614;DHT22;800;48.824;9.346;2022-09-30T04:22:59;13.00;63.40
1614;DHT22;800;48.824;9.346;2022-09-30T04:25:26;12.90;63.10
1614;DHT22;800;48.824;9.346;2022-09-30T04:27:52;13.00;63.00
1614;DHT22;800;48.824;9.346;2022-09-30T04:30:18;13.00;62.80
1614;DHT22;800;48.824;9.346;2022-09-30T04:32:44;13.00;62.60
1614;DHT22;800;48.824;9.346;2022-09-30T04:35:11;12.80;62.30
1614;DHT22;800;48.824;9.346;2022-09-30T04:37:43;12.10;64.40
1614;DHT22;800;48.824;9.346;2022-09-30T04:40:10;11.90;66.60
1614;DHT22;800;48.824;9.346;2022-09-30T04:42:38;12.00;67.10
1614;DHT22;800;48.824;9.346;2022-09-30T04:45:04;12.00;67.00
1614;DHT22;800;48.824;9.346;2022-09-30T04:47:30;12.20;66.80
1614;DHT22;800;48.824;9.346;2022-09-30T04:49:56;12.30;66.20
1614;DHT22;800;48.824;9.346;2022-09-30T04:52:22;12.40;65.50
1614;DHT22;800;48.824;9.346;2022-09-30T04:54:47;12.60;65.10
1614;DHT22;800;48.824;9.346;2022-09-30T04:57:13;12.60;64.60
1614;DHT22;800;48.824;9.346;2022-09-30T04:59:39;12.40;64.90
1614;DHT22;800;48.824;9.346;2022-09-30T05:02:05;12.40;65.60
1614;DHT22;800;48.824;9.346;2022-09-30T05:04:31;12.40;65.50
1614;DHT22;800;48.824;9.346;2022-09-30T05:06:58;12.50;65.20
1614;DHT22;800;48.824;9.346;2022-09-30T05:09:24;12.40;65.00
1614;DHT22;800;48.824;9.346;2022-09-30T05:11:50;12.30;65.40
1614;DHT22;800;48.824;9.346;2022-09-30T05:14:16;12.40;65.80
1614;DHT22;800;48.824;9.346;2022-09-30T05:16:42;12.40;65.00
1614;DHT22;800;48.824;9.346;2022-09-30T05:19:07;12.50;64.90
1614;DHT22;800;48.824;9.346;2022-09-30T05:21:33;12.60;64.70
1614;DHT22;800;48.824;9.346;2022-09-30T05:24:00;12.80;65.50
1614;DHT22;800;48.824;9.346;2022-09-30T05:26:26;13.00;66.30
1614;DHT22;800;48.824;9.346;2022-09-30T05:28:52;12.90;66.00
1614;DHT22;800;48.824;9.346;2022-09-30T05:31:18;13.10;66.50
1614;DHT22;800;48.824;9.346;2022-09-30T05:33:45;13.40;66.60
1614;DHT22;800;48.824;9.346;2022-09-30T05:36:13;13.60;65.90
1614;DHT22;800;48.824;9.346;2022-09-30T05:38:38;13.60;63.20
1614;DHT22;800;48.824;9.346;2022-09-30T05:41:12;13.60;63.80
1614;DHT22;800;48.824;9.346;2022-09-30T05:43:39;13.60;63.80
1614;DHT22;800;48.824;9.346;2022-09-30T05:46:05;13.60;62.70
1614;DHT22;800;48.824;9.346;2022-09-30T05:48:31;13.70;62.70
1614;DHT22;800;48.824;9.346;2022-09-30T05:50:58;13.70;63.00
1614;DHT22;800;48.824;9.346;2022-09-30T05:53:26;13.50;61.50
1614;DHT22;800;48.824;9.346;2022-09-30T05:55:51;13.50;63.10
1614;DHT22;800;48.824;9.346;2022-09-30T05:58:18;13.60;62.90
1614;DHT22;800;48.824;9.346;2022-09-30T06:00:46;13.70;62.60
1614;DHT22;800;48.824;9.346;2022-09-30T06:03:12;13.70;61.80
1614;DHT22;800;48.824;9.346;2022-09-30T06:05:38;13.80;62.20
1614;DHT22;800;48.824;9.346;2022-09-30T06:08:04;13.90;62.10
1614;DHT22;800;48.824;9.346;2022-09-30T06:10:32;14.00;61.40
1614;DHT22;800;48.824;9.346;2022-09-30T06:12:59;14.10;61.30
1614;DHT22;800;48.824;9.346;2022-09-30T06:15:25;14.20;61.30
1614;DHT22;800;48.824;9.346;2022-09-30T06:17:54;14.30;61.30
1614;DHT22;800;48.824;9.346;2022-09-30T06:20:20;14.40;60.70
1614;DHT22;800;48.824;9.346;2022-09-30T06:22:46;14.30;59.20
1614;DHT22;800;48.824;9.346;2022-09-30T06:25:12;14.10;60.10
1614;DHT22;800;48.824;9.346;2022-09-30T06:27:38;14.20;60.80
1614;DHT22;800;48.824;9.346;2022-09-30T06:30:05;14.30;61.70
1614;DHT22;800;48.824;9.346;2022-09-30T06:32:31;14.40;60.80
1614;DHT22;800;48.824;9.346;2022-09-30T06:34:56;14.40;60.20
1614;DHT22;800;48.824;9.346;2022-09-30T06:37:22;14.10;59.70
1614;DHT22;800;48.824;9.346;2022-09-30T06:39:48;14.00;61.50
1614;DHT22;800;48.824;9.346;2022-09-30T06:42:17;14.10;61.70
1614;DHT22;800;48.824;9.346;2022-09-30T06:44:44;14.20;61.10
1614;DHT22;800;48.824;9.346;2022-09-30T06:47:12;14.30;60.60
1614;DHT22;800;48.824;9.346;2022-09-30T06:49:38;14.30;61.00
1614;DHT22;800;48.824;9.346;2022-09-30T06:52:04;14.30;60.50
1614;DHT22;800;48.824;9.346;2022-09-30T06:54:30;14.40;60.80
1614;DHT22;800;48.824;9.346;2022-09-30T06:56:55;14.40;60.70
1614;DHT22;800;48.824;9.346;2022-09-30T06:59:24;14.50;60.60
1614;DHT22;800;48.824;9.346;2022-09-30T07:01:49;14.30;60.70
1614;DHT22;800;48.824;9.346;2022-09-30T07:04:15;14.30;61.30
1614;DHT22;800;48.824;9.346;2022-09-30T07:06:41;13.50;60.40
1614;DHT22;800;48.824;9.346;2022-09-30T07:09:07;13.40;63.70
1614;DHT22;800;48.824;9.346;2022-09-30T07:11:33;13.50;63.70
1614;DHT22;800;48.824;9.346;2022-09-30T07:13:59;13.70;63.60
1614;DHT22;800;48.824;9.346;2022-09-30T07:16:25;13.80;62.30
1614;DHT22;800;48.824;9.346;2022-09-30T07:18:50;13.80;61.50
1614;DHT22;800;48.824;9.346;2022-09-30T07:21:16;13.50;63.20
1614;DHT22;800;48.824;9.346;2022-09-30T07:23:43;13.50;64.00
1614;DHT22;800;48.824;9.346;2022-09-30T07:26:14;13.60;63.70
1614;DHT22;800;48.824;9.346;2022-09-30T07:28:40;13.70;64.50
1614;DHT22;800;48.824;9.346;2022-09-30T07:31:09;13.90;64.30
1614;DHT22;800;48.824;9.346;2022-09-30T07:33:36;14.10;63.30
1614;DHT22;800;48.824;9.346;2022-09-30T07:36:03;14.20;63.00
1614;DHT22;800;48.824;9.346;2022-09-30T07:38:29;14.40;62.50
1614;DHT22;800;48.824;9.346;2022-09-30T07:40:57;14.50;62.20
1614;DHT22;800;48.824;9.346;2022-09-30T07:43:29;14.70;61.20
1614;DHT22;800;48.824;9.346;2022-09-30T07:48:33;14.70;61.70
1614;DHT22;800;48.824;9.346;2022-09-30T07:51:07;14.80;61.40
1614;DHT22;800;48.824;9.346;2022-09-30T07:53:34;14.80;61.30
1614;DHT22;800;48.824;9.346;2022-09-30T07:56:06;14.90;62.20
1614;DHT22;800;48.824;9.346;2022-09-30T07:58:32;15.10;61.20
1614;DHT22;800;48.824;9.346;2022-09-30T08:00:58;15.30;61.20
1614;DHT22;800;48.824;9.346;2022-09-30T08:03:24;15.50;60.70
1614;DHT22;800;48.824;9.346;2022-09-30T08:05:50;15.60;60.00
1614;DHT22;800;48.824;9.346;2022-09-30T08:08:16;15.70;59.60
1614;DHT22;800;48.824;9.346;2022-09-30T08:10:42;15.80;59.40
1614;DHT22;800;48.824;9.346;2022-09-30T08:13:08;15.90;59.00
1614;DHT22;800;48.824;9.346;2022-09-30T08:15:34;16.00;58.80
1614;DHT22;800;48.824;9.346;2022-09-30T08:18:00;16.00;58.60
1614;DHT22;800;48.824;9.346;2022-09-30T08:20:26;16.10;59.00
1614;DHT22;800;48.824;9.346;2022-09-30T08:22:53;16.10;59.10
1614;DHT22;800;48.824;9.346;2022-09-30T08:25:19;16.20;58.90
1614;DHT22;800;48.824;9.346;2022-09-30T08:27:45;16.30;58.90
1614;DHT22;800;48.824;9.346;2022-09-30T08:30:11;16.30;58.70
1614;DHT22;800;48.824;9.346;2022-09-30T08:32:37;16.30;59.10
1614;DHT22;800;48.824;9.346;2022-09-30T08:35:03;16.50;59.00
1614;DHT22;800;48.824;9.346;2022-09-30T08:37:28;16.60;58.30
1614;DHT22;800;48.824;9.346;2022-09-30T08:39:54;16.70;58.40
1614;DHT22;800;48.824;9.346;2022-09-30T08:42:41;16.70;58.20
1614;DHT22;800;48.824;9.346;2022-09-30T08:50:45;17.00;57.70
1614;DHT22;800;48.824;9.346;2022-09-30T08:53:40;17.10;57.50
1614;DHT22;800;48.824;9.346;2022-09-30T08:56:07;17.00;57.50
1614;DHT22;800;48.824;9.346;2022-09-30T08:58:38;17.00;57.70
1614;DHT22;800;48.824;9.346;2022-09-30T09:01:12;17.10;57.90
1614;DHT22;800;48.824;9.346;2022-09-30T09:03:39;17.20;58.00
1614;DHT22;800;48.824;9.346;2022-09-30T09:06:19;17.20;58.00
1614;DHT22;800;48.824;9.346;2022-09-30T09:11:29;17.30;57.80
1614;DHT22;800;48.824;9.346;2022-09-30T09:14:01;17.40;57.50
1614;DHT22;800;48.824;9.346;2022-09-30T09:16:35;17.50;57.20
1614;DHT22;800;48.824;9.346;2022-09-30T09:19:09;17.50;57.40
1614;DHT22;800;48.824;9.346;2022-09-30T09:21:53;17.60;57.50
1614;DHT22;800;48.824;9.346;2022-09-30T09:24:26;17.70;57.40
1614;DHT22;800;48.824;9.346;2022-09-30T09:26:54;17.80;57.20
1614;DHT22;800;48.824;9.346;2022-09-30T09:32:13;17.60;57.60
1614;DHT22;800;48.824;9.346;2022-09-30T09:34:39;17.70;57.80
1614;DHT22;800;48.824;9.346;2022-09-30T09:37:33;18.00;57.40
1614;DHT22;800;48.824;9.346;2022-09-30T09:45:50;18.60;56.60
1614;DHT22;800;48.824;9.346;2022-09-30T09:48:19;18.80;56.20
1614;DHT22;800;48.824;9.346;2022-09-30T09:50:54;19.10;55.10
1614;DHT22;800;48.824;9.346;2022-09-30T09:53:41;19.10;54.90
1614;DHT22;800;48.824;9.346;2022-09-30T09:56:14;19.30;54.70
1614;DHT22;800;48.824;9.346;2022-09-30T09:59:20;19.30;53.60
1614;DHT22;800;48.824;9.346;2022-09-30T10:01:50;19.50;52.60
1614;DHT22;800;48.824;9.346;2022-09-30T10:04:24;19.70;53.20
1614;DHT22;800;48.824;9.346;2022-09-30T10:06:56;19.80;53.50
1614;DHT22;800;48.824;9.346;2022-09-30T10:14:50;20.30;51.00
1614;DHT22;800;48.824;9.346;2022-09-30T10:17:36;20.40;50.10
1614;DHT22;800;48.824;9.346;2022-09-30T10:22:39;20.80;50.10
1614;DHT22;800;48.824;9.346;2022-09-30T10:28:25;20.90;48.60
1614;DHT22;800;48.824;9.346;2022-09-30T10:30:56;21.10;48.50
1614;DHT22;800;48.824;9.346;2022-09-30T10:33:29;21.20;46.90
1614;DHT22;800;48.824;9.346;2022-09-30T10:36:07;21.40;47.50
1614;DHT22;800;48.824;9.346;2022-09-30T10:38:34;21.50;47.20
1614;DHT22;800;48.824;9.346;2022-09-30T10:41:02;21.80;47.30
1614;DHT22;800;48.824;9.346;2022-09-30T10:43:33;22.10;47.20
1614;DHT22;800;48.824;9.346;2022-09-30T10:46:02;22.20;42.80
1614;DHT22;800;48.824;9.346;2022-09-30T10:48:33;22.20;45.30
1614;DHT22;800;48.824;9.346;2022-09-30T10:50:59;22.50;44.30
1614;DHT22;800;48.824;9.346;2022-09-30T10:53:33;22.70;43.20
1614;DHT22;800;48.824;9.346;2022-09-30T10:55:59;23.10;42.90
1614;DHT22;800;48.824;9.346;2022-09-30T10:58:44;23.40;41.90
1614;DHT22;800;48.824;9.346;2022-09-30T11:01:23;23.60;40.50
1614;DHT22;800;48.824;9.346;2022-09-30T11:04:03;23.20;41.60
1614;DHT22;800;48.824;9.346;2022-09-30T11:06:32;23.50;41.90
1614;DHT22;800;48.824;9.346;2022-09-30T11:09:05;23.80;41.70
1614;DHT22;800;48.824;9.346;2022-09-30T11:11:41;24.10;41.30
1614;DHT22;800;48.824;9.346;2022-09-30T11:14:44;24.40;39.90
1614;DHT22;800;48.824;9.346;2022-09-30T11:20:20;24.80;38.80
1614;DHT22;800;48.824;9.346;2022-09-30T11:25:42;24.80;38.20
1614;DHT22;800;48.824;9.346;2022-09-30T11:28:29;25.10;38.70
1614;DHT22;800;48.824;9.346;2022-09-30T11:31:01;25.20;38.30
1614;DHT22;800;48.824;9.346;2022-09-30T11:39:06;25.50;37.50
1614;DHT22;800;48.824;9.346;2022-09-30T11:41:47;25.50;36.50
1614;DHT22;800;48.824;9.346;2022-09-30T11:47:23;25.40;38.10
1614;DHT22;800;48.824;9.346;2022-09-30T11:50:24;25.50;36.50
1614;DHT22;800;48.824;9.346;2022-09-30T11:53:17;25.50;36.00
1614;DHT22;800;48.824;9.346;2022-09-30T11:56:16;25.60;36.00
1614;DHT22;800;48.824;9.346;2022-09-30T11:58:48;25.90;34.00
1614;DHT22;800;48.824;9.346;2022-09-30T12:01:20;26.20;34.50
1614;DHT22;800;48.824;9.346;2022-09-30T12:09:47;26.50;34.40
1614;DHT22;800;48.824;9.346;2022-09-30T12:12:16;26.40;33.70
1614;DHT22;800;48.824;9.346;2022-09-30T12:14:45;26.10;32.80
1614;DHT22;800;48.824;9.346;2022-09-30T12:17:30;26.20;33.50
1614;DHT22;800;48.824;9.346;2022-09-30T12:22:52;26.50;33.90
1614;DHT22;800;48.824;9.346;2022-09-30T12:26:05;26.70;34.20
1614;DHT22;800;48.824;9.346;2022-09-30T12:37:40;26.50;34.10
1614;DHT22;800;48.824;9.346;2022-09-30T12:47:59;26.60;33.40
1614;DHT22;800;48.824;9.346;2022-09-30T12:50:29;26.50;33.90
1614;DHT22;800;48.824;9.346;2022-09-30T12:53:11;26.70;33.40
1614;DHT22;800;48.824;9.346;2022-09-30T12:55:41;26.80;33.00
1614;DHT22;800;48.824;9.346;2022-09-30T12:58:21;26.30;33.60
1614;DHT22;800;48.824;9.346;2022-09-30T13:01:04;26.50;33.40
1614;DHT22;800;48.824;9.346;2022-09-30T13:03:49;26.70;33.40
1614;DHT22;800;48.824;9.346;2022-09-30T13:06:17;26.60;33.10
1614;DHT22;800;48.824;9.346;2022-09-30T13:08:46;26.70;32.90
1614;DHT22;800;48.824;9.346;2022-09-30T13:11:34;26.30;33.80
1614;DHT22;800;48.824;9.346;2022-09-30T13:14:32;26.30;34.00
1614;DHT22;800;48.824;9.346;2022-09-30T13:19:42;26.70;33.70
1614;DHT22;800;48.824;9.346;2022-09-30T13:27:44;27.20;32.80
1614;DHT22;800;48.824;9.346;2022-09-30T13:32:48;27.20;33.50
1614;DHT22;800;48.824;9.346;2022-09-30T13:40:55;27.20;32.30
1614;DHT22;800;48.824;9.346;2022-09-30T13:43:37;27.10;32.70
1614;DHT22;800;48.824;9.346;2022-09-30T13:46:34;27.10;32.70
1614;DHT22;800;48.824;9.346;2022-09-30T13:49:18;27.10;33.10
1614;DHT22;800;48.824;9.346;2022-09-30T13:51:45;27.00;33.10
1614;DHT22;800;48.824;9.346;2022-09-30T13:54:32;27.00;32.70
1614;DHT22;800;48.824;9.346;2022-09-30T13:57:01;26.90;33.10
1614;DHT22;800;48.824;9.346;2022-09-30T13:59:54;26.90;33.60
1614;DHT22;800;48.824;9.346;2022-09-30T14:21:35;26.50;31.90
1614;DHT22;800;48.824;9.346;2022-09-30T14:24:12;26.50;32.80
1614;DHT22;800;48.824;9.346;2022-09-30T14:29:56;26.30;33.30
1614;DHT22;800;48.824;9.346;2022-09-30T14:32:31;26.20;33.80
1614;DHT22;800;48.824;9.346;2022-09-30T14:34:58;26.20;34.30
1614;DHT22;800;48.824;9.346;2022-09-30T14:37:28;26.10;34.20
1614;DHT22;800;48.824;9.346;2022-09-30T14:39:55;26.10;34.40
1614;DHT22;800;48.824;9.346;2022-09-30T14:42:31;26.00;34.20
1614;DHT22;800;48.824;9.346;2022-09-30T14:45:01;25.90;34.30
1614;DHT22;800;48.824;9.346;2022-09-30T14:47:34;25.90;34.30
1614;DHT22;800;48.824;9.346;2022-09-30T14:50:15;25.90;34.20
1614;DHT22;800;48.824;9.346;2022-09-30T14:55:28;25.90;34.20
1614;DHT22;800;48.824;9.346;2022-09-30T15:01:03;25.70;34.30
1614;DHT22;800;48.824;9.346;2022-09-30T15:03:41;25.70;34.40
1614;DHT22;800;48.824;9.346;2022-09-30T15:08:43;25.80;34.60
1614;DHT22;800;48.824;9.346;2022-09-30T15:11:17;25.70;35.30
1614;DHT22;800;48.824;9.346;2022-09-30T15:13:42;25.80;35.10
1614;DHT22;800;48.824;9.346;2022-09-30T15:16:26;25.80;35.00
1614;DHT22;800;48.824;9.346;2022-09-30T15:18:52;25.90;34.50
1614;DHT22;800;48.824;9.346;2022-09-30T15:21:19;25.90;33.50
1614;DHT22;800;48.824;9.346;2022-09-30T15:23:49;25.90;33.50
1614;DHT22;800;48.824;9.346;2022-09-30T15:26:23;25.90;33.30
1614;DHT22;800;48.824;9.346;2022-09-30T15:28:49;25.90;32.70
1614;DHT22;800;48.824;9.346;2022-09-30T15:31:28;25.80;32.70
1614;DHT22;800;48.824;9.346;2022-09-30T15:34:03;25.80;33.20
1614;DHT22;800;48.824;9.346;2022-09-30T15:36:29;25.70;33.30
1614;DHT22;800;48.824;9.346;2022-09-30T15:38:55;25.60;33.40
1614;DHT22;800;48.824;9.346;2022-09-30T15:41:20;25.70;33.30
1614;DHT22;800;48.824;9.346;2022-09-30T15:43:48;25.70;33.90
1614;DHT22;800;48.824;9.346;2022-09-30T15:48:48;25.80;33.60
1614;DHT22;800;48.824;9.346;2022-09-30T15:51:47;25.80;34.30
1614;DHT22;800;48.824;9.346;2022-09-30T15:56:41;25.90;34.10
1614;DHT22;800;48.824;9.346;2022-09-30T15:59:11;25.90;33.50
1614;DHT22;800;48.824;9.346;2022-09-30T16:01:46;25.90;33.20
1614;DHT22;800;48.824;9.346;2022-09-30T16:06:56;25.80;33.00
1614;DHT22;800;48.824;9.346;2022-09-30T16:12:05;25.70;34.00
1614;DHT22;800;48.824;9.346;2022-09-30T16:14:34;25.70;33.10
1614;DHT22;800;48.824;9.346;2022-09-30T16:17:04;25.60;33.30
1614;DHT22;800;48.824;9.346;2022-09-30T16:19:30;25.50;33.60
1614;DHT22;800;48.824;9.346;2022-09-30T16:21:57;25.40;34.60
1614;DHT22;800;48.824;9.346;2022-09-30T16:26:51;25.30;34.20
1614;DHT22;800;48.824;9.346;2022-09-30T16:29:17;25.30;34.10
1614;DHT22;800;48.824;9.346;2022-09-30T16:31:45;25.20;34.30
1614;DHT22;800;48.824;9.346;2022-09-30T16:34:25;25.10;34.90
1614;DHT22;800;48.824;9.346;2022-09-30T16:37:16;25.00;35.50
1614;DHT22;800;48.824;9.346;2022-09-30T16:39:42;24.90;36.20
1614;DHT22;800;48.824;9.346;2022-09-30T16:42:15;24.70;36.50
1614;DHT22;800;48.824;9.346;2022-09-30T16:44:41;24.60;36.80
1614;DHT22;800;48.824;9.346;2022-09-30T16:47:11;24.50;36.90
1614;DHT22;800;48.824;9.346;2022-09-30T16:49:37;24.40;37.20
1614;DHT22;800;48.824;9.346;2022-09-30T16:52:02;24.30;37.50
1614;DHT22;800;48.824;9.346;2022-09-30T16:54:30;24.10;37.90
1614;DHT22;800;48.824;9.346;2022-09-30T16:56:55;24.00;38.40
1614;DHT22;800;48.824;9.346;2022-09-30T16:59:22;23.90;38.80
1614;DHT22;800;48.824;9.346;2022-09-30T17:01:48;23.70;39.10
1614;DHT22;800;48.824;9.346;2022-09-30T17:04:14;23.60;39.40
1614;DHT22;800;48.824;9.346;2022-09-30T17:06:39;23.40;39.60
1614;DHT22;800;48.824;9.346;2022-09-30T17:09:05;23.30;39.80
1614;DHT22;800;48.824;9.346;2022-09-30T17:11:32;23.20;39.90
1614;DHT22;800;48.824;9.346;2022-09-30T17:13:59;23.20;40.20
1614;DHT22;800;48.824;9.346;2022-09-30T17:16:26;23.10;40.70
1614;DHT22;800;48.824;9.346;2022-09-30T17:18:52;23.00;41.00
1614;DHT22;800;48.824;9.346;2022-09-30T17:21:19;22.90;41.30
1614;DHT22;800;48.824;9.346;2022-09-30T17:23:45;22.80;41.60
1614;DHT22;800;48.824;9.346;2022-09-30T17:26:11;22.70;42.10
1614;DHT22;800;48.824;9.346;2022-09-30T17:28:36;22.60;42.40
1614;DHT22;800;48.824;9.346;2022-09-30T17:31:02;22.50;42.60
1614;DHT22;800;48.824;9.346;2022-09-30T17:33:32;22.30;43.00
1614;DHT22;800;48.824;9.346;2022-09-30T17:36:04;22.10;43.40
1614;DHT22;800;48.824;9.346;2022-09-30T17:38:31;22.00;43.50
1614;DHT22;800;48.824;9.346;2022-09-30T17:40:57;21.90;43.70
1614;DHT22;800;48.824;9.346;2022-09-30T17:43:42;21.90;43.80
1614;DHT22;800;48.824;9.346;2022-09-30T17:46:10;21.80;43.90
1614;DHT22;800;48.824;9.346;2022-09-30T17:48:36;21.70;44.10
1614;DHT22;800;48.824;9.346;2022-09-30T17:51:03;21.60;44.30
1614;DHT22;800;48.824;9.346;2022-09-30T17:53:30;21.60;44.60
1614;DHT22;800;48.824;9.346;2022-09-30T17:56:17;21.60;44.50
1614;DHT22;800;48.824;9.346;2022-09-30T17:58:44;21.50;44.70
1614;DHT22;800;48.824;9.346;2022-09-30T18:01:13;21.50;44.50
1614;DHT22;800;48.824;9.346;2022-09-30T18:03:39;21.40;44.70
1614;DHT22;800;48.824;9.346;2022-09-30T18:06:05;21.20;45.50
1614;DHT22;800;48.824;9.346;2022-09-30T18:08:31;21.20;45.40
1614;DHT22;800;48.824;9.346;2022-09-30T18:10:56;21.10;45.10
1614;DHT22;800;48.824;9.346;2022-09-30T18:13:23;21.10;45.20
1614;DHT22;800;48.824;9.346;2022-09-30T18:15:52;21.10;45.00
1614;DHT22;800;48.824;9.346;2022-09-30T18:18:18;21.00;45.00
1614;DHT22;800;48.824;9.346;2022-09-30T18:20:45;20.90;45.40
1614;DHT22;800;48.824;9.346;2022-09-30T18:23:12;20.90;45.70
1614;DHT22;800;48.824;9.346;2022-09-30T18:25:38;20.90;46.00
1614;DHT22;800;48.824;9.346;2022-09-30T18:28:07;20.80;46.10
1614;DHT22;800;48.824;9.346;2022-09-30T18:30:34;20.80;46.30
1614;DHT22;800;48.824;9.346;2022-09-30T18:33:00;20.70;46.20
1614;DHT22;800;48.824;9.346;2022-09-30T18:35:27;20.60;46.30
1614;DHT22;800;48.824;9.346;2022-09-30T18:37:55;20.50;46.30
1614;DHT22;800;48.824;9.346;2022-09-30T18:40:23;20.50;46.50
1614;DHT22;800;48.824;9.346;2022-09-30T18:42:55;20.30;46.70
1614;DHT22;800;48.824;9.346;2022-09-30T18:45:25;20.20;47.00
1614;DHT22;800;48.824;9.346;2022-09-30T18:47:56;20.10;47.40
1614;DHT22;800;48.824;9.346;2022-09-30T18:50:22;20.00;47.70
1614;DHT22;800;48.824;9.346;2022-09-30T18:52:50;20.00;48.00
1614;DHT22;800;48.824;9.346;2022-09-30T18:55:16;20.00;47.80
1614;DHT22;800;48.824;9.346;2022-09-30T18:57:42;20.00;47.90
1614;DHT22;800;48.824;9.346;2022-09-30T19:00:09;19.90;48.10
1614;DHT22;800;48.824;9.346;2022-09-30T19:02:35;19.90;47.90
1614;DHT22;800;48.824;9.346;2022-09-30T19:05:01;19.90;48.00
1614;DHT22;800;48.824;9.346;2022-09-30T19:07:27;19.80;48.40
1614;DHT22;800;48.824;9.346;2022-09-30T19:09:52;19.80;48.00
1614;DHT22;800;48.824;9.346;2022-09-30T19:12:18;19.70;48.10
1614;DHT22;800;48.824;9.346;2022-09-30T19:14:44;19.50;48.50
1614;DHT22;800;48.824;9.346;2022-09-30T19:17:12;19.50;48.70
1614;DHT22;800;48.824;9.346;2022-09-30T19:19:38;19.50;48.80
1614;DHT22;800;48.824;9.346;2022-09-30T19:22:09;19.40;49.10
1614;DHT22;800;48.824;9.346;2022-09-30T19:24:35;19.30;49.70
1614;DHT22;800;48.824;9.346;2022-09-30T19:27:03;19.30;49.30
1614;DHT22;800;48.824;9.346;2022-09-30T19:29:29;19.20;49.20
1614;DHT22;800;48.824;9.346;2022-09-30T19:31:54;19.20;49.00
1614;DHT22;800;48.824;9.346;2022-09-30T19:34:21;19.10;49.00
1614;DHT22;800;48.824;9.346;2022-09-30T19:36:47;19.00;48.90
1614;DHT22;800;48.824;9.346;2022-09-30T19:41:40;18.80;48.90
1614;DHT22;800;48.824;9.346;2022-09-30T19:44:05;18.80;49.30
1614;DHT22;800;48.824;9.346;2022-09-30T19:46:31;18.70;49.40
1614;DHT22;800;48.824;9.346;2022-09-30T19:48:57;18.60;49.50